createdAt,value
2023-02-05T00:00:12.702Z,22.82
2023-02-05T00:00:48.627Z,22.78
2023-02-05T00:01:24.951Z,22.80
2023-02-05T00:02:01.330Z,22.79
2023-02-05T00:02:37.947Z,22.80
2023-02-05T00:03:14.407Z,22.82
2023-02-05T00:03:50.553Z,22.79
2023-02-05T00:04:26.017Z,22.81
2023-02-05T00:05:02.276Z,22.82
2023-02-05T00:05:39.149Z,22.81
2023-02-05T00:06:15.093Z,22.77
2023-02-05T00:06:51.747Z,22.79
2023-02-05T00:07:27.702Z,22.76
2023-02-05T00:08:04.645Z,22.78
2023-02-05T00:08:40.754Z,22.81
2023-02-05T00:09:16.733Z,22.79
2023-02-05T00:09:52.797Z,22.82
2023-02-05T00:10:29.134Z,22.79
2023-02-05T00:11:06.149Z,22.79
2023-02-05T00:11:42.569Z,22.81
2023-02-05T00:12:18.368Z,22.80
2023-02-05T00:12:55.101Z,22.79
2023-02-05T00:13:31.650Z,22.80
2023-02-05T00:14:07.581Z,22.81
2023-02-05T00:14:43.346Z,22.82
2023-02-05T00:15:19.361Z,22.79
2023-02-05T00:15:55.500Z,22.79
2023-02-05T00:16:32.300Z,22.79
2023-02-05T00:17:08.433Z,22.79
2023-02-05T00:17:44.943Z,22.78
2023-02-05T00:18:20.954Z,22.77
2023-02-05T00:18:57.778Z,22.77
2023-02-05T00:19:34.186Z,22.78
2023-02-05T00:20:10.041Z,22.76
2023-02-05T00:20:46.233Z,22.77
2023-02-05T00:21:22.597Z,22.79
2023-02-05T00:21:58.429Z,22.78
2023-02-05T00:22:35.521Z,22.80
2023-02-05T00:23:11.877Z,22.78
2023-02-05T00:23:47.295Z,22.77
2023-02-05T00:24:23.052Z,22.78
2023-02-05T00:24:59.048Z,22.77
2023-02-05T00:25:35.154Z,22.77
2023-02-05T00:26:11.223Z,22.77
2023-02-05T00:26:47.804Z,22.77
2023-02-05T00:27:24.206Z,22.79
2023-02-05T00:28:00.778Z,22.78
2023-02-05T00:28:36.896Z,22.79
2023-02-05T00:29:12.648Z,22.77
2023-02-05T00:29:48.616Z,22.77
2023-02-05T00:30:24.856Z,22.77
2023-02-05T00:31:00.806Z,22.77
2023-02-05T00:31:37.646Z,22.80
2023-02-05T00:32:14.298Z,22.78
2023-02-05T00:32:50.866Z,22.79
2023-02-05T00:33:27.562Z,22.78
2023-02-05T00:34:03.891Z,22.79
2023-02-05T00:34:39.900Z,22.78
2023-02-05T00:35:15.945Z,22.78
2023-02-05T00:35:51.509Z,22.74
2023-02-05T00:36:27.858Z,22.79
2023-02-05T00:37:04.054Z,22.77
2023-02-05T00:37:40.261Z,22.80
2023-02-05T00:38:16.999Z,22.79
2023-02-05T00:38:53.628Z,22.80
2023-02-05T00:39:29.896Z,22.80
2023-02-05T00:40:06.554Z,22.78
2023-02-05T00:40:43.431Z,22.79
2023-02-05T00:41:18.767Z,22.78
2023-02-05T00:41:55.348Z,22.81
2023-02-05T00:42:31.452Z,22.82
2023-02-05T00:43:08.362Z,22.79
2023-02-05T00:43:44.000Z,22.79
2023-02-05T00:44:19.345Z,22.79
2023-02-05T00:44:55.951Z,22.78
2023-02-05T00:45:32.562Z,22.77
2023-02-05T00:46:09.369Z,22.79
2023-02-05T00:46:45.516Z,22.80
2023-02-05T00:47:21.988Z,22.79
2023-02-05T00:47:58.260Z,22.81
2023-02-05T00:48:34.918Z,22.79
2023-02-05T00:49:10.870Z,22.78
2023-02-05T00:49:46.712Z,22.79
2023-02-05T00:50:23.260Z,22.78
2023-02-05T00:50:59.348Z,22.79
2023-02-05T00:51:35.507Z,22.80
2023-02-05T00:52:12.515Z,22.79
2023-02-05T00:52:48.711Z,22.79
2023-02-05T00:53:24.954Z,22.79
2023-02-05T00:54:01.225Z,22.80
2023-02-05T00:54:37.222Z,22.78
2023-02-05T00:55:12.460Z,22.79
2023-02-05T00:55:48.898Z,22.79
2023-02-05T00:56:25.415Z,22.77
2023-02-05T00:57:01.441Z,22.77
2023-02-05T00:57:37.400Z,22.79
2023-02-05T00:58:13.514Z,22.78
2023-02-05T00:58:49.543Z,22.80
2023-02-05T00:59:25.428Z,22.81
2023-02-05T01:00:04.958Z,22.78
2023-02-05T01:00:40.217Z,22.78
2023-02-05T01:01:16.717Z,22.78
2023-02-05T01:01:53.178Z,22.77
2023-02-05T01:02:29.097Z,22.76
2023-02-05T01:03:05.192Z,22.76
2023-02-05T01:03:41.716Z,22.77
2023-02-05T01:04:17.847Z,22.77
2023-02-05T01:04:54.192Z,22.78
2023-02-05T01:05:29.916Z,22.78
2023-02-05T01:06:05.797Z,22.74
2023-02-05T01:06:42.293Z,22.74
2023-02-05T01:07:18.140Z,22.76
2023-02-05T01:07:54.953Z,22.77
2023-02-05T01:08:31.494Z,22.78
2023-02-05T01:09:07.302Z,22.78
2023-02-05T01:09:43.382Z,22.76
2023-02-05T01:10:19.557Z,22.76
2023-02-05T01:10:55.785Z,22.73
2023-02-05T01:11:31.222Z,22.77
2023-02-05T01:12:07.810Z,22.77
2023-02-05T01:12:43.805Z,22.76
2023-02-05T01:13:20.018Z,22.78
2023-02-05T01:13:56.243Z,22.77
2023-02-05T01:14:32.447Z,22.77
2023-02-05T01:15:09.375Z,22.80
2023-02-05T01:15:46.272Z,22.78
2023-02-05T01:16:22.383Z,22.79
2023-02-05T01:16:57.419Z,22.78
2023-02-05T01:17:33.348Z,22.78
2023-02-05T01:18:09.654Z,22.75
2023-02-05T01:18:46.301Z,22.76
2023-02-05T01:19:22.872Z,22.77
2023-02-05T01:19:58.868Z,22.76
2023-02-05T01:20:36.103Z,22.78
2023-02-05T01:21:12.394Z,22.79
2023-02-05T01:21:48.866Z,22.77
2023-02-05T01:22:24.687Z,22.77
2023-02-05T01:23:01.679Z,22.77
2023-02-05T01:23:38.377Z,22.78
2023-02-05T01:24:14.802Z,22.74
2023-02-05T01:24:51.305Z,22.73
2023-02-05T01:25:27.888Z,22.76
2023-02-05T01:26:04.120Z,22.77
2023-02-05T01:26:41.062Z,22.78
2023-02-05T01:27:17.348Z,22.78
2023-02-05T01:27:53.087Z,22.79
2023-02-05T01:28:29.597Z,22.77
2023-02-05T01:29:06.189Z,22.78
2023-02-05T01:29:42.953Z,22.81
2023-02-05T01:30:19.366Z,22.79
2023-02-05T01:30:55.476Z,22.78
2023-02-05T01:31:32.418Z,22.79
2023-02-05T01:32:08.976Z,22.79
2023-02-05T01:32:44.793Z,22.81
2023-02-05T01:33:20.226Z,22.79
2023-02-05T01:33:56.647Z,22.79
2023-02-05T01:34:32.733Z,22.78
2023-02-05T01:35:09.524Z,22.78
2023-02-05T01:35:45.404Z,22.78
2023-02-05T01:36:21.718Z,22.78
2023-02-05T01:36:58.227Z,22.77
2023-02-05T01:37:34.267Z,22.77
2023-02-05T01:38:10.334Z,22.76
2023-02-05T01:38:45.812Z,22.78
2023-02-05T01:39:22.317Z,22.79
2023-02-05T01:39:58.907Z,22.78
2023-02-05T01:40:35.238Z,22.76
2023-02-05T01:41:11.976Z,22.78
2023-02-05T01:41:48.254Z,22.77
2023-02-05T01:42:25.139Z,22.78
2023-02-05T01:43:00.836Z,22.74
2023-02-05T01:43:36.618Z,22.74
2023-02-05T01:44:11.901Z,22.77
2023-02-05T01:44:47.650Z,22.76
2023-02-05T01:45:24.074Z,22.73
2023-02-05T01:46:00.274Z,22.76
2023-02-05T01:46:36.294Z,22.78
2023-02-05T01:47:13.127Z,22.77
2023-02-05T01:47:49.176Z,22.79
2023-02-05T01:48:25.663Z,22.79
2023-02-05T01:49:01.915Z,22.78
2023-02-05T01:49:38.336Z,22.76
2023-02-05T01:50:14.285Z,22.73
2023-02-05T01:50:51.173Z,22.77
2023-02-05T01:51:26.895Z,22.76
2023-02-05T01:52:02.964Z,22.76
2023-02-05T01:52:39.942Z,22.76
2023-02-05T01:53:16.366Z,22.75
2023-02-05T01:53:52.651Z,22.75
2023-02-05T01:54:28.849Z,22.77
2023-02-05T01:55:04.786Z,22.74
2023-02-05T01:55:40.833Z,22.75
2023-02-05T01:56:17.309Z,22.76
2023-02-05T01:56:53.679Z,22.77
2023-02-05T01:57:30.054Z,22.77
2023-02-05T01:58:06.491Z,22.76
2023-02-05T01:58:43.024Z,22.78
2023-02-05T01:59:18.830Z,22.79
2023-02-05T01:59:54.890Z,22.79
2023-02-05T02:00:31.007Z,22.80
2023-02-05T02:01:06.406Z,22.79
2023-02-05T02:01:42.959Z,22.77
2023-02-05T02:02:19.285Z,22.77
2023-02-05T02:02:55.614Z,22.76
2023-02-05T02:03:31.904Z,22.76
2023-02-05T02:04:08.229Z,22.74
2023-02-05T02:04:45.103Z,22.77
2023-02-05T02:05:21.539Z,22.77
2023-02-05T02:05:57.759Z,22.77
2023-02-05T02:06:33.105Z,22.77
2023-02-05T02:07:09.891Z,22.77
2023-02-05T02:07:46.147Z,22.78
2023-02-05T02:08:21.897Z,22.78
2023-02-05T02:08:58.759Z,22.79
2023-02-05T02:09:34.378Z,22.79
2023-02-05T02:10:09.998Z,22.78
2023-02-05T02:10:46.206Z,22.77
2023-02-05T02:11:22.805Z,22.76
2023-02-05T02:11:59.058Z,22.77
2023-02-05T02:12:34.756Z,22.76
2023-02-05T02:13:11.261Z,22.76
2023-02-05T02:13:47.272Z,22.77
2023-02-05T02:14:23.687Z,22.77
2023-02-05T02:14:59.585Z,22.80
2023-02-05T02:15:40.397Z,22.78
2023-02-05T02:16:16.816Z,22.77
2023-02-05T02:16:52.984Z,22.75
2023-02-05T02:17:29.330Z,22.75
2023-02-05T02:18:05.756Z,22.76
2023-02-05T02:18:41.215Z,22.75
2023-02-05T02:19:17.434Z,22.76
2023-02-05T02:19:54.067Z,22.76
2023-02-05T02:20:29.654Z,22.78
2023-02-05T02:21:05.967Z,22.77
2023-02-05T02:21:42.500Z,22.77
2023-02-05T02:22:18.170Z,22.76
2023-02-05T02:22:54.755Z,22.77
2023-02-05T02:23:31.067Z,22.76
2023-02-05T02:24:07.663Z,22.78
2023-02-05T02:24:44.338Z,22.77
2023-02-05T02:25:20.276Z,22.76
2023-02-05T02:25:55.946Z,22.77
2023-02-05T02:26:33.501Z,22.77
2023-02-05T02:27:09.180Z,22.75
2023-02-05T02:27:45.755Z,22.75
2023-02-05T02:28:22.398Z,22.77
2023-02-05T02:28:58.689Z,22.77
2023-02-05T02:29:35.590Z,22.76
2023-02-05T02:30:11.606Z,22.75
2023-02-05T02:30:47.804Z,22.76
2023-02-05T02:31:23.067Z,22.76
2023-02-05T02:31:58.386Z,22.79
2023-02-05T02:32:34.883Z,22.79
2023-02-05T02:33:11.579Z,22.78
2023-02-05T02:33:47.709Z,22.77
2023-02-05T02:34:23.399Z,22.74
2023-02-05T02:34:59.494Z,22.76
2023-02-05T02:35:35.546Z,22.76
2023-02-05T02:36:12.130Z,22.76
2023-02-05T02:36:48.207Z,22.78
2023-02-05T02:37:23.829Z,22.77
2023-02-05T02:38:00.138Z,22.78
2023-02-05T02:38:36.365Z,22.76
2023-02-05T02:39:13.133Z,22.79
2023-02-05T02:39:48.532Z,22.81
2023-02-05T02:40:25.548Z,22.78
2023-02-05T02:41:01.421Z,22.78
2023-02-05T02:41:37.259Z,22.77
2023-02-05T02:42:13.077Z,22.77
2023-02-05T02:42:49.114Z,22.78
2023-02-05T02:43:25.819Z,22.76
2023-02-05T02:44:01.627Z,22.75
2023-02-05T02:44:38.264Z,22.75
2023-02-05T02:45:14.776Z,22.77
2023-02-05T02:45:50.454Z,22.78
2023-02-05T02:46:26.434Z,22.76
2023-02-05T02:47:01.752Z,22.75
2023-02-05T02:47:38.353Z,22.75
2023-02-05T02:48:14.887Z,22.76
2023-02-05T02:48:51.488Z,22.75
2023-02-05T02:49:27.952Z,22.75
2023-02-05T02:50:03.861Z,22.77
2023-02-05T02:50:39.997Z,22.76
2023-02-05T02:51:16.269Z,22.77
2023-02-05T02:51:51.938Z,22.78
2023-02-05T02:52:27.547Z,22.78
2023-02-05T02:53:02.935Z,22.79
2023-02-05T02:53:39.544Z,22.78
2023-02-05T02:54:15.461Z,22.79
2023-02-05T02:54:52.003Z,22.79
2023-02-05T02:55:28.031Z,22.79
2023-02-05T02:56:04.140Z,22.80
2023-02-05T02:56:40.477Z,22.79
2023-02-05T02:57:16.182Z,22.78
2023-02-05T02:57:52.253Z,22.78
2023-02-05T02:58:28.459Z,22.81
2023-02-05T02:59:05.044Z,22.79
2023-02-05T02:59:41.465Z,22.81
2023-02-05T03:00:18.146Z,22.77
2023-02-05T03:00:54.622Z,22.80
2023-02-05T03:01:31.277Z,22.78
2023-02-05T03:02:07.853Z,22.78
2023-02-05T03:02:43.040Z,22.78
2023-02-05T03:03:19.296Z,22.79
2023-02-05T03:03:55.670Z,22.76
2023-02-05T03:04:31.791Z,22.79
2023-02-05T03:05:07.855Z,22.78
2023-02-05T03:05:44.014Z,22.76
2023-02-05T03:06:20.526Z,22.76
2023-02-05T03:06:56.130Z,22.76
2023-02-05T03:07:31.877Z,22.76
2023-02-05T03:08:07.336Z,22.75
2023-02-05T03:08:43.249Z,22.75
2023-02-05T03:09:19.593Z,22.73
2023-02-05T03:09:55.419Z,22.73
2023-02-05T03:10:32.215Z,22.75
2023-02-05T03:11:08.363Z,22.75
2023-02-05T03:11:44.610Z,22.76
2023-02-05T03:12:20.579Z,22.73
2023-02-05T03:12:57.416Z,22.73
2023-02-05T03:13:33.074Z,22.75
2023-02-05T03:14:08.109Z,22.76
2023-02-05T03:14:44.832Z,22.74
2023-02-05T03:15:21.026Z,22.75
2023-02-05T03:15:57.757Z,22.72
2023-02-05T03:16:33.724Z,22.75
2023-02-05T03:17:10.086Z,22.75
2023-02-05T03:17:46.937Z,22.76
2023-02-05T03:18:23.295Z,22.76
2023-02-05T03:18:59.028Z,22.78
2023-02-05T03:19:34.939Z,22.77
2023-02-05T03:20:10.976Z,22.78
2023-02-05T03:20:46.793Z,22.78
2023-02-05T03:21:23.492Z,22.75
2023-02-05T03:21:59.748Z,22.77
2023-02-05T03:22:35.872Z,22.78
2023-02-05T03:23:11.846Z,22.76
2023-02-05T03:23:48.078Z,22.76
2023-02-05T03:24:24.385Z,22.79
2023-02-05T03:25:00.564Z,22.76
2023-02-05T03:25:36.794Z,22.77
2023-02-05T03:26:12.451Z,22.78
2023-02-05T03:26:48.521Z,22.79
2023-02-05T03:27:25.329Z,22.79
2023-02-05T03:28:01.392Z,22.79
2023-02-05T03:28:37.924Z,22.78
2023-02-05T03:29:14.002Z,22.76
2023-02-05T03:29:50.638Z,22.75
2023-02-05T03:30:26.269Z,22.79
2023-02-05T03:31:02.408Z,22.78
2023-02-05T03:31:38.747Z,22.76
2023-02-05T03:32:14.875Z,22.78
2023-02-05T03:32:51.284Z,22.76
2023-02-05T03:33:27.524Z,22.78
2023-02-05T03:34:03.287Z,22.77
2023-02-05T03:34:38.963Z,22.77
2023-02-05T03:35:15.249Z,22.75
2023-02-05T03:35:50.939Z,22.78
2023-02-05T03:36:26.825Z,22.77
2023-02-05T03:37:02.175Z,22.80
2023-02-05T03:37:37.473Z,22.79
2023-02-05T03:38:13.263Z,22.79
2023-02-05T03:38:49.447Z,22.78
2023-02-05T03:39:25.140Z,22.78
2023-02-05T03:40:01.681Z,22.77
2023-02-05T03:40:38.077Z,22.76
2023-02-05T03:41:13.972Z,22.79
2023-02-05T03:41:50.236Z,22.78
2023-02-05T03:42:25.754Z,22.78
2023-02-05T03:43:01.141Z,22.76
2023-02-05T03:43:37.627Z,22.76
2023-02-05T03:44:13.937Z,22.77
2023-02-05T03:44:50.086Z,22.76
2023-02-05T03:45:25.975Z,22.76
2023-02-05T03:46:02.806Z,22.77
2023-02-05T03:46:39.540Z,22.76
2023-02-05T03:47:16.167Z,22.78
2023-02-05T03:47:52.496Z,22.78
2023-02-05T03:48:28.008Z,22.78
2023-02-05T03:49:04.326Z,22.76
2023-02-05T03:49:40.967Z,22.76
2023-02-05T03:50:16.996Z,22.77
2023-02-05T03:50:52.997Z,22.77
2023-02-05T03:51:29.453Z,22.79
2023-02-05T03:52:05.524Z,22.75
2023-02-05T03:52:41.987Z,22.76
2023-02-05T03:53:18.058Z,22.76
2023-02-05T03:53:54.167Z,22.76
2023-02-05T03:54:30.410Z,22.77
2023-02-05T03:55:06.261Z,22.74
2023-02-05T03:55:41.647Z,22.75
2023-02-05T03:56:17.273Z,22.77
2023-02-05T03:56:53.861Z,22.75
2023-02-05T03:57:30.070Z,22.75
2023-02-05T03:58:06.298Z,22.76
2023-02-05T03:58:42.218Z,22.80
2023-02-05T03:59:18.670Z,22.78
2023-02-05T03:59:55.017Z,22.77
2023-02-05T04:00:32.930Z,22.78
2023-02-05T04:01:08.703Z,22.78
2023-02-05T04:01:45.167Z,22.76
2023-02-05T04:02:21.593Z,22.76
2023-02-05T04:02:57.944Z,22.76
2023-02-05T04:03:34.016Z,22.77
2023-02-05T04:04:10.415Z,22.75
2023-02-05T04:04:46.496Z,22.74
2023-02-05T04:05:23.015Z,22.72
2023-02-05T04:05:59.263Z,22.74
2023-02-05T04:06:34.453Z,22.77
2023-02-05T04:07:11.033Z,22.76
2023-02-05T04:07:47.581Z,22.78
2023-02-05T04:08:24.409Z,22.75
2023-02-05T04:09:00.536Z,22.76
2023-02-05T04:09:36.975Z,22.74
2023-02-05T04:10:13.084Z,22.75
2023-02-05T04:10:49.145Z,22.77
2023-02-05T04:11:24.756Z,22.76
2023-02-05T04:12:00.918Z,22.77
2023-02-05T04:12:36.698Z,22.77
2023-02-05T04:13:13.927Z,22.75
2023-02-05T04:13:49.739Z,22.73
2023-02-05T04:14:26.520Z,22.74
2023-02-05T04:15:02.314Z,22.75
2023-02-05T04:15:39.016Z,22.73
2023-02-05T04:16:14.843Z,22.75
2023-02-05T04:16:50.897Z,22.77
2023-02-05T04:17:27.143Z,22.76
2023-02-05T04:18:03.398Z,22.79
2023-02-05T04:18:39.723Z,22.79
2023-02-05T04:19:15.987Z,22.78
2023-02-05T04:19:51.940Z,22.77
2023-02-05T04:20:28.418Z,22.77
2023-02-05T04:21:04.749Z,22.75
2023-02-05T04:21:40.732Z,22.76
2023-02-05T04:22:16.106Z,22.76
2023-02-05T04:22:52.720Z,22.76
2023-02-05T04:23:29.021Z,22.77
2023-02-05T04:24:05.824Z,22.73
2023-02-05T04:24:42.047Z,22.77
2023-02-05T04:25:18.466Z,22.77
2023-02-05T04:25:54.832Z,22.76
2023-02-05T04:26:31.120Z,22.77
2023-02-05T04:27:06.965Z,22.75
2023-02-05T04:27:42.810Z,22.76
2023-02-05T04:28:19.058Z,22.77
2023-02-05T04:28:55.275Z,22.75
2023-02-05T04:29:31.784Z,22.75
2023-02-05T04:30:07.979Z,22.76
2023-02-05T04:30:44.091Z,22.75
2023-02-05T04:31:20.077Z,22.74
2023-02-05T04:31:56.297Z,22.76
2023-02-05T04:32:32.121Z,22.77
2023-02-05T04:33:07.690Z,22.78
2023-02-05T04:33:44.121Z,22.75
2023-02-05T04:34:19.933Z,22.76
2023-02-05T04:34:56.324Z,22.76
2023-02-05T04:35:33.458Z,22.78
2023-02-05T04:36:09.568Z,22.77
2023-02-05T04:36:45.380Z,22.78
2023-02-05T04:37:22.038Z,22.77
2023-02-05T04:37:57.903Z,22.76
2023-02-05T04:38:33.144Z,22.75
2023-02-05T04:39:09.622Z,22.75
2023-02-05T04:39:45.777Z,22.75
2023-02-05T04:40:22.209Z,22.76
2023-02-05T04:40:57.811Z,22.73
2023-02-05T04:41:34.150Z,22.74
2023-02-05T04:42:10.257Z,22.73
2023-02-05T04:42:46.785Z,22.75
2023-02-05T04:43:22.612Z,22.75
2023-02-05T04:43:58.325Z,22.74
2023-02-05T04:44:35.163Z,22.74
2023-02-05T04:45:11.379Z,22.76
2023-02-05T04:45:47.473Z,22.76
2023-02-05T04:46:24.013Z,22.77
2023-02-05T04:46:59.983Z,22.75
2023-02-05T04:47:36.491Z,22.75
2023-02-05T04:48:12.306Z,22.72
2023-02-05T04:48:48.658Z,22.74
2023-02-05T04:49:24.446Z,22.71
2023-02-05T04:50:00.684Z,22.72
2023-02-05T04:50:37.451Z,22.72
2023-02-05T04:51:13.750Z,22.73
2023-02-05T04:51:50.374Z,22.72
2023-02-05T04:52:26.917Z,22.73
2023-02-05T04:53:02.368Z,22.74
2023-02-05T04:53:39.022Z,22.75
2023-02-05T04:54:14.780Z,22.72
2023-02-05T04:54:50.252Z,22.73
2023-02-05T04:55:26.727Z,22.75
2023-02-05T04:56:02.481Z,22.74
2023-02-05T04:56:38.875Z,22.72
2023-02-05T04:57:15.777Z,22.75
2023-02-05T04:57:52.714Z,22.75
2023-02-05T04:58:28.232Z,22.74
2023-02-05T04:59:04.935Z,22.76
2023-02-05T04:59:40.754Z,22.75
2023-02-05T05:00:16.511Z,22.75
2023-02-05T05:00:52.228Z,22.74
2023-02-05T05:01:28.395Z,22.77
2023-02-05T05:02:04.656Z,22.75
2023-02-05T05:02:41.093Z,22.76
2023-02-05T05:03:17.380Z,22.74
2023-02-05T05:03:53.711Z,22.75
2023-02-05T05:04:30.147Z,22.76
2023-02-05T05:05:06.017Z,22.74
2023-02-05T05:05:41.798Z,22.72
2023-02-05T05:06:18.236Z,22.75
2023-02-05T05:06:54.570Z,22.73
2023-02-05T05:07:30.328Z,22.74
2023-02-05T05:08:06.057Z,22.75
2023-02-05T05:08:42.855Z,22.75
2023-02-05T05:09:19.152Z,22.75
2023-02-05T05:09:55.772Z,22.72
2023-02-05T05:10:32.187Z,22.74
2023-02-05T05:11:08.955Z,22.71
2023-02-05T05:11:44.935Z,22.73
2023-02-05T05:12:21.200Z,22.77
2023-02-05T05:12:57.526Z,22.76
2023-02-05T05:13:33.453Z,22.74
2023-02-05T05:14:08.964Z,22.77
2023-02-05T05:14:45.433Z,22.76
2023-02-05T05:15:22.010Z,22.75
2023-02-05T05:15:57.967Z,22.75
2023-02-05T05:16:34.135Z,22.76
2023-02-05T05:17:09.945Z,22.75
2023-02-05T05:17:46.513Z,22.74
2023-02-05T05:18:22.763Z,22.75
2023-02-05T05:18:58.463Z,22.75
2023-02-05T05:19:34.680Z,22.74
2023-02-05T05:20:10.808Z,22.76
2023-02-05T05:20:47.025Z,22.75
2023-02-05T05:21:23.311Z,22.70
2023-02-05T05:21:59.494Z,22.73
2023-02-05T05:22:35.781Z,22.75
2023-02-05T05:23:12.233Z,22.74
2023-02-05T05:23:48.206Z,22.74
2023-02-05T05:24:23.713Z,22.75
2023-02-05T05:24:59.652Z,22.74
2023-02-05T05:25:36.194Z,22.74
2023-02-05T05:26:12.544Z,22.74
2023-02-05T05:26:48.804Z,22.73
2023-02-05T05:27:25.477Z,22.72
2023-02-05T05:28:01.780Z,22.74
2023-02-05T05:28:37.882Z,22.75
2023-02-05T05:29:13.763Z,22.75
2023-02-05T05:29:49.698Z,22.73
2023-02-05T05:30:26.272Z,22.74
2023-02-05T05:31:02.781Z,22.74
2023-02-05T05:31:38.735Z,22.73
2023-02-05T05:32:14.871Z,22.73
2023-02-05T05:32:50.714Z,22.75
2023-02-05T05:33:26.915Z,22.74
2023-02-05T05:34:03.414Z,22.73
2023-02-05T05:34:39.283Z,22.74
2023-02-05T05:35:15.154Z,22.74
2023-02-05T05:35:51.224Z,22.74
2023-02-05T05:36:28.037Z,22.73
2023-02-05T05:37:04.496Z,22.73
2023-02-05T05:37:40.190Z,22.74
2023-02-05T05:38:16.778Z,22.74
2023-02-05T05:38:52.909Z,22.72
2023-02-05T05:39:29.779Z,22.75
2023-02-05T05:40:05.831Z,22.75
2023-02-05T05:40:42.272Z,22.75
2023-02-05T05:41:18.310Z,22.75
2023-02-05T05:41:54.841Z,22.75
2023-02-05T05:42:31.410Z,22.76
2023-02-05T05:43:08.098Z,22.73
2023-02-05T05:43:45.419Z,22.73
2023-02-05T05:44:22.185Z,22.75
2023-02-05T05:44:58.985Z,22.73
2023-02-05T05:45:36.569Z,22.75
2023-02-05T05:46:12.321Z,22.72
2023-02-05T05:46:48.700Z,22.71
2023-02-05T05:47:24.910Z,22.72
2023-02-05T05:48:01.772Z,22.74
2023-02-05T05:48:38.211Z,22.75
2023-02-05T05:49:15.081Z,22.76
2023-02-05T05:49:51.206Z,22.75
2023-02-05T05:50:27.341Z,22.77
2023-02-05T05:51:03.947Z,22.76
2023-02-05T05:51:39.377Z,22.75
2023-02-05T05:52:16.012Z,22.75
2023-02-05T05:52:52.212Z,22.76
2023-02-05T05:53:28.285Z,22.78
2023-02-05T05:54:04.711Z,22.77
2023-02-05T05:54:41.058Z,22.79
2023-02-05T05:55:17.627Z,22.77
2023-02-05T05:55:53.218Z,22.78
2023-02-05T05:56:29.481Z,22.78
2023-02-05T05:57:05.298Z,22.78
2023-02-05T05:57:41.712Z,22.79
2023-02-05T05:58:17.866Z,22.79
2023-02-05T05:58:53.743Z,22.78
2023-02-05T05:59:29.761Z,22.78
2023-02-05T06:00:06.613Z,22.79
2023-02-05T06:00:43.513Z,22.77
2023-02-05T06:01:20.286Z,22.79
2023-02-05T06:01:56.475Z,22.79
2023-02-05T06:02:32.060Z,22.79
2023-02-05T06:03:08.106Z,22.77
2023-02-05T06:03:44.181Z,22.78
2023-02-05T06:04:20.665Z,22.76
2023-02-05T06:04:57.658Z,22.77
2023-02-05T06:05:34.270Z,22.76
2023-02-05T06:06:10.548Z,22.77
2023-02-05T06:06:47.324Z,22.77
2023-02-05T06:07:23.217Z,22.78
2023-02-05T06:07:58.744Z,22.78
2023-02-05T06:08:35.181Z,22.76
2023-02-05T06:09:11.465Z,22.74
2023-02-05T06:09:48.041Z,22.77
2023-02-05T06:10:24.252Z,22.79
2023-02-05T06:11:00.789Z,22.75
2023-02-05T06:11:36.715Z,22.76
2023-02-05T06:12:13.455Z,22.78
2023-02-05T06:12:49.392Z,22.77
2023-02-05T06:13:25.299Z,22.79
2023-02-05T06:14:01.156Z,22.77
2023-02-05T06:14:37.716Z,22.77
2023-02-05T06:15:14.119Z,22.78
2023-02-05T06:15:50.614Z,22.78
2023-02-05T06:16:27.272Z,22.79
2023-02-05T06:17:03.389Z,22.80
2023-02-05T06:17:39.931Z,22.78
2023-02-05T06:18:16.145Z,22.79
2023-02-05T06:18:51.878Z,22.78
2023-02-05T06:19:27.484Z,22.78
2023-02-05T06:20:04.060Z,22.80
2023-02-05T06:20:40.544Z,22.78
2023-02-05T06:21:16.750Z,22.79
2023-02-05T06:21:52.964Z,22.79
2023-02-05T06:22:29.369Z,22.78
2023-02-05T06:23:04.868Z,22.79
2023-02-05T06:23:40.904Z,22.79
2023-02-05T06:24:16.746Z,22.79
2023-02-05T06:24:52.674Z,22.79
2023-02-05T06:25:29.408Z,22.82
2023-02-05T06:26:05.825Z,22.79
2023-02-05T06:26:41.856Z,22.79
2023-02-05T06:27:18.631Z,22.78
2023-02-05T06:27:55.236Z,22.82
2023-02-05T06:28:31.098Z,22.81
2023-02-05T06:29:07.299Z,22.78
2023-02-05T06:29:43.079Z,22.82
2023-02-05T06:30:19.916Z,22.82
2023-02-05T06:30:57.143Z,22.80
2023-02-05T06:31:33.618Z,22.82
2023-02-05T06:32:10.142Z,22.81
2023-02-05T06:32:46.863Z,22.82
2023-02-05T06:33:22.623Z,22.79
2023-02-05T06:33:58.581Z,22.79
2023-02-05T06:34:33.987Z,22.81
2023-02-05T06:35:10.319Z,22.80
2023-02-05T06:35:46.664Z,22.80
2023-02-05T06:36:22.824Z,22.81
2023-02-05T06:36:58.941Z,22.78
2023-02-05T06:37:46.821Z,22.79
2023-02-05T06:38:23.171Z,22.79
2023-02-05T06:38:58.704Z,22.80
2023-02-05T06:39:34.674Z,22.79
2023-02-05T06:40:11.624Z,22.79
2023-02-05T06:40:48.057Z,22.81
2023-02-05T06:41:24.031Z,22.80
2023-02-05T06:42:00.898Z,22.78
2023-02-05T06:42:37.641Z,22.79
2023-02-05T06:43:13.594Z,22.80
2023-02-05T06:43:49.889Z,22.79
2023-02-05T06:44:26.113Z,22.81
2023-02-05T06:45:03.559Z,22.81
2023-02-05T06:45:39.834Z,22.82
2023-02-05T06:46:15.913Z,22.77
2023-02-05T06:46:52.472Z,22.79
2023-02-05T06:47:29.028Z,22.79
2023-02-05T06:48:05.523Z,22.81
2023-02-05T06:48:41.500Z,22.79
2023-02-05T06:49:17.884Z,22.79
2023-02-05T06:49:53.691Z,22.82
2023-02-05T06:50:29.495Z,22.81
2023-02-05T06:51:05.982Z,22.79
2023-02-05T06:51:42.404Z,22.79
2023-02-05T06:52:18.468Z,22.81
2023-02-05T06:52:54.682Z,22.81
2023-02-05T06:53:30.823Z,22.80
2023-02-05T06:54:07.350Z,22.82
2023-02-05T06:54:43.457Z,22.83
2023-02-05T06:55:19.956Z,22.81
2023-02-05T06:55:55.784Z,22.81
2023-02-05T06:56:32.316Z,22.83
2023-02-05T06:57:08.866Z,22.81
2023-02-05T06:57:45.615Z,22.81
2023-02-05T06:58:21.386Z,22.81
2023-02-05T06:58:57.184Z,22.80
2023-02-05T06:59:33.138Z,22.82
2023-02-05T07:00:09.795Z,22.83
2023-02-05T07:00:45.850Z,22.81
2023-02-05T07:01:21.908Z,22.82
2023-02-05T07:01:58.450Z,22.79
2023-02-05T07:02:34.845Z,22.81
2023-02-05T07:03:10.945Z,22.81
2023-02-05T07:03:47.414Z,22.82
2023-02-05T07:04:23.790Z,22.83
2023-02-05T07:05:00.169Z,22.82
2023-02-05T07:05:37.312Z,22.81
2023-02-05T07:06:13.249Z,22.83
2023-02-05T07:06:49.014Z,22.83
2023-02-05T07:07:25.064Z,22.82
2023-02-05T07:08:02.019Z,22.81
2023-02-05T07:08:38.399Z,22.80
2023-02-05T07:09:15.324Z,22.83
2023-02-05T07:09:51.928Z,22.82
2023-02-05T07:10:27.381Z,22.79
2023-02-05T07:11:04.574Z,22.81
2023-02-05T07:11:40.622Z,22.82
2023-02-05T07:12:16.016Z,22.83
2023-02-05T07:12:52.632Z,22.83
2023-02-05T07:13:28.660Z,22.81
2023-02-05T07:14:05.392Z,22.83
2023-02-05T07:14:42.476Z,22.83
2023-02-05T07:15:19.081Z,22.83
2023-02-05T07:15:55.694Z,22.82
2023-02-05T07:16:32.524Z,22.83
2023-02-05T07:17:08.863Z,22.83
2023-02-05T07:17:44.639Z,22.84
2023-02-05T07:18:21.384Z,22.85
2023-02-05T07:18:57.872Z,22.81
2023-02-05T07:19:34.393Z,22.78
2023-02-05T07:20:11.000Z,22.80
2023-02-05T07:20:48.007Z,22.79
2023-02-05T07:21:24.208Z,22.81
2023-02-05T07:22:00.634Z,22.81
2023-02-05T07:22:37.122Z,22.79
2023-02-05T07:23:13.292Z,22.79
2023-02-05T07:23:50.187Z,22.82
2023-02-05T07:24:26.415Z,22.81
2023-02-05T07:25:04.617Z,22.78
2023-02-05T07:25:40.410Z,22.81
2023-02-05T07:26:17.213Z,22.82
2023-02-05T07:26:53.867Z,22.79
2023-02-05T07:27:29.979Z,22.82
2023-02-05T07:28:06.293Z,22.83
2023-02-05T07:28:42.181Z,22.82
2023-02-05T07:29:18.472Z,22.83
2023-02-05T07:29:53.961Z,22.83
2023-02-05T07:30:30.569Z,22.79
2023-02-05T07:31:06.596Z,22.81
2023-02-05T07:31:43.230Z,22.79
2023-02-05T07:32:19.932Z,22.81
2023-02-05T07:32:56.532Z,22.80
2023-02-05T07:33:32.561Z,22.81
2023-02-05T07:34:08.861Z,22.82
2023-02-05T07:34:44.754Z,22.82
2023-02-05T07:35:21.209Z,22.82
2023-02-05T07:35:57.969Z,22.79
2023-02-05T07:36:33.927Z,22.81
2023-02-05T07:37:10.518Z,22.79
2023-02-05T07:37:46.673Z,22.81
2023-02-05T07:38:23.275Z,22.83
2023-02-05T07:38:59.549Z,22.81
2023-02-05T07:39:34.928Z,22.83
2023-02-05T07:40:10.444Z,22.81
2023-02-05T07:40:47.042Z,22.85
2023-02-05T07:41:22.821Z,22.83
2023-02-05T07:41:59.514Z,22.84
2023-02-05T07:42:35.590Z,22.81
2023-02-05T07:43:12.327Z,22.83
2023-02-05T07:43:48.563Z,22.78
2023-02-05T07:44:24.077Z,22.78
2023-02-05T07:44:59.646Z,22.81
2023-02-05T07:45:40.760Z,22.81
2023-02-05T07:46:17.499Z,22.83
2023-02-05T07:46:53.898Z,22.82